createdAt,value
2018-05-01T00:00:34.486Z,15.50
2018-05-01T00:03:02.177Z,15.50
2018-05-01T00:05:29.858Z,15.60
2018-05-01T00:07:58.420Z,15.90
2018-05-01T00:10:26.970Z,15.90
2018-05-01T00:12:54.634Z,15.90
2018-05-01T00:15:22.280Z,16.10
2018-05-01T00:17:50.067Z,16.20
2018-05-01T00:20:17.861Z,16.00
2018-05-01T00:22:46.248Z,16.00
2018-05-01T00:25:14.679Z,15.90
2018-05-01T00:27:42.355Z,15.90
2018-05-01T00:30:09.981Z,15.90
2018-05-01T00:32:37.772Z,15.90
2018-05-01T00:35:05.395Z,16.00
2018-05-01T00:37:33.802Z,16.10
2018-05-01T00:40:01.413Z,16.00
2018-05-01T00:42:29.165Z,16.10
2018-05-01T00:44:57.393Z,16.10
2018-05-01T00:47:25.053Z,16.00
2018-05-01T00:49:52.781Z,15.90
2018-05-01T00:52:32.383Z,15.80
2018-05-01T00:55:00.040Z,15.80
2018-05-01T00:57:27.687Z,15.70
2018-05-01T00:59:55.472Z,15.50
2018-05-01T01:02:23.852Z,15.50
2018-05-01T01:04:51.509Z,15.40
2018-05-01T01:07:19.192Z,15.40
2018-05-01T01:09:46.869Z,15.40
2018-05-01T01:12:14.530Z,15.30
2018-05-01T01:14:42.177Z,15.40
2018-05-01T01:17:09.833Z,15.40
2018-05-01T01:19:37.659Z,15.40
2018-05-01T01:22:05.288Z,15.50
2018-05-01T01:24:32.895Z,15.60
2018-05-01T01:27:00.680Z,15.50
2018-05-01T01:29:28.445Z,15.50
2018-05-01T01:32:01.910Z,15.50
2018-05-01T01:34:29.541Z,15.60
2018-05-01T01:36:56.732Z,15.70
2018-05-01T01:39:23.883Z,15.80
2018-05-01T01:41:51.023Z,15.80
2018-05-01T01:44:18.206Z,15.70
2018-05-01T01:46:45.389Z,15.90
2018-05-01T01:49:14.024Z,15.80
2018-05-01T01:51:41.194Z,15.80
2018-05-01T01:54:09.164Z,15.80
2018-05-01T01:56:36.456Z,15.70
2018-05-01T01:59:04.393Z,15.60
2018-05-01T02:01:31.640Z,15.60
2018-05-01T02:03:58.921Z,15.60
2018-05-01T02:06:26.178Z,15.60
2018-05-01T02:08:53.501Z,15.50
2018-05-01T02:11:20.659Z,15.60
2018-05-01T02:13:47.932Z,15.70
2018-05-01T02:16:16.619Z,15.30
2018-05-01T02:18:43.944Z,15.30
2018-05-01T02:21:11.096Z,15.50
2018-05-01T02:23:38.401Z,15.50
2018-05-01T02:26:06.353Z,15.40
2018-05-01T02:28:33.541Z,15.40
2018-05-01T02:31:00.718Z,15.40
2018-05-01T02:33:28.012Z,15.50
2018-05-01T02:35:55.920Z,15.40
2018-05-01T02:38:23.129Z,15.40
2018-05-01T02:40:50.455Z,15.50
2018-05-01T02:43:17.808Z,15.50
2018-05-01T02:45:44.986Z,15.50
2018-05-01T02:48:12.245Z,15.50
2018-05-01T02:50:39.564Z,15.50
2018-05-01T02:53:06.918Z,15.40
2018-05-01T02:55:34.117Z,15.40
2018-05-01T02:58:03.109Z,15.30
2018-05-01T03:00:31.104Z,15.10
2018-05-01T03:02:58.316Z,15.10
2018-05-01T03:05:25.465Z,15.00
2018-05-01T03:07:52.648Z,14.90
2018-05-01T03:10:20.548Z,15.20
2018-05-01T03:12:47.766Z,15.20
2018-05-01T03:15:15.723Z,15.10
2018-05-01T03:17:43.672Z,15.10
2018-05-01T03:20:10.788Z,15.10
2018-05-01T03:22:37.953Z,15.00
2018-05-01T03:25:05.298Z,14.90
2018-05-01T03:27:32.654Z,14.70
2018-05-01T03:29:59.777Z,14.50
2018-05-01T03:32:26.938Z,14.20
2018-05-01T03:34:54.207Z,14.20
2018-05-01T03:37:21.366Z,14.40
2018-05-01T03:39:48.523Z,14.60
2018-05-01T03:42:15.785Z,14.80
2018-05-01T03:44:43.041Z,14.90
2018-05-01T03:47:10.265Z,14.80
2018-05-01T03:49:37.444Z,14.80
2018-05-01T03:52:05.005Z,14.70
2018-05-01T03:54:32.331Z,14.80
2018-05-01T03:56:59.490Z,14.60
2018-05-01T03:59:26.837Z,14.50
2018-05-01T04:01:53.985Z,14.60
2018-05-01T04:04:21.153Z,14.70
2018-05-01T04:06:48.430Z,14.70
2018-05-01T04:09:16.410Z,14.60
2018-05-01T04:11:44.340Z,14.50
2018-05-01T04:14:11.527Z,14.50
2018-05-01T04:16:39.460Z,14.50
2018-05-01T04:19:06.623Z,14.50
2018-05-01T04:21:33.760Z,14.50
2018-05-01T04:24:00.899Z,14.50
2018-05-01T04:26:28.258Z,14.50
2018-05-01T04:28:55.408Z,14.60
2018-05-01T04:31:22.762Z,14.60
2018-05-01T04:33:49.896Z,14.60
2018-05-01T04:36:17.085Z,14.80
2018-05-01T04:38:44.305Z,14.80
2018-05-01T04:41:11.423Z,14.70
2018-05-01T04:43:39.435Z,14.60
2018-05-01T04:46:06.644Z,14.50
2018-05-01T04:48:33.879Z,14.60
2018-05-01T04:51:01.938Z,14.60
2018-05-01T04:53:29.196Z,14.60
2018-05-01T04:55:58.055Z,14.60
2018-05-01T04:58:25.189Z,14.60
2018-05-01T05:00:52.559Z,14.60
2018-05-01T05:03:19.694Z,14.60
2018-05-01T05:05:47.862Z,14.60
2018-05-01T05:08:15.066Z,14.80
2018-05-01T05:10:42.215Z,14.80
2018-05-01T05:13:09.380Z,14.90
2018-05-01T05:15:37.498Z,14.90
2018-05-01T05:18:04.666Z,14.90
2018-05-01T05:20:31.837Z,14.80
2018-05-01T05:22:59.165Z,14.80
2018-05-01T05:25:26.424Z,14.80
2018-05-01T05:27:53.774Z,14.90
2018-05-01T05:30:20.907Z,14.90
2018-05-01T05:32:48.181Z,14.80
2018-05-01T05:35:15.359Z,14.90
2018-05-01T05:37:42.535Z,14.90
2018-05-01T05:40:09.672Z,14.90
2018-05-01T05:42:37.733Z,15.00
2018-05-01T05:45:05.713Z,15.10
2018-05-01T05:47:33.604Z,15.10
2018-05-01T05:50:00.720Z,15.10
2018-05-01T05:52:27.952Z,15.10
2018-05-01T05:54:55.116Z,15.10
2018-05-01T05:57:23.777Z,14.90
2018-05-01T05:59:51.043Z,14.90
2018-05-01T06:02:18.246Z,15.00
2018-05-01T06:04:45.636Z,15.20
2018-05-01T06:07:12.888Z,15.20
2018-05-01T06:09:40.067Z,15.30
2018-05-01T06:12:07.398Z,15.20
2018-05-01T06:14:34.578Z,15.30
2018-05-01T06:17:02.491Z,15.40
2018-05-01T06:19:29.661Z,15.50
2018-05-01T06:21:56.813Z,15.60
2018-05-01T06:24:24.084Z,15.60
2018-05-01T06:26:51.349Z,15.70
2018-05-01T06:29:19.436Z,15.80
2018-05-01T06:31:48.301Z,15.80
2018-05-01T06:34:15.444Z,15.70
2018-05-01T06:36:42.790Z,15.70
2018-05-01T06:39:10.074Z,15.80
2018-05-01T06:41:37.346Z,15.80
2018-05-01T06:44:04.650Z,15.90
2018-05-01T06:46:31.833Z,15.90
2018-05-01T06:48:59.084Z,15.90
2018-05-01T06:51:27.768Z,15.90
2018-05-01T06:53:54.944Z,15.90
2018-05-01T06:56:22.888Z,15.90
2018-05-01T06:58:50.840Z,15.90
2018-05-01T07:01:18.584Z,15.90
2018-05-01T07:03:45.951Z,16.00
2018-05-01T07:06:13.136Z,16.10
2018-05-01T07:08:40.507Z,16.30
2018-05-01T07:11:08.473Z,16.60
2018-05-01T07:13:35.692Z,16.60
2018-05-01T07:16:02.847Z,16.70
2018-05-01T07:18:30.183Z,16.70
2018-05-01T07:20:57.538Z,16.70
2018-05-01T07:23:24.723Z,16.70
2018-05-01T07:25:51.974Z,16.70
2018-05-01T07:28:19.221Z,16.60
2018-05-01T07:30:46.344Z,16.50
2018-05-01T07:33:13.698Z,16.30
2018-05-01T07:35:40.903Z,16.30
2018-05-01T07:38:08.105Z,16.30
2018-05-01T07:40:35.406Z,16.30
2018-05-01T07:43:03.141Z,16.40
2018-05-01T07:45:31.204Z,16.50
2018-05-01T07:47:58.548Z,16.50
2018-05-01T07:50:25.838Z,16.40
2018-05-01T07:52:53.796Z,16.50
2018-05-01T07:55:21.071Z,16.50
2018-05-01T07:57:49.139Z,16.50
2018-05-01T08:00:18.079Z,16.50
2018-05-01T08:02:45.222Z,16.50
2018-05-01T08:05:12.599Z,16.60
2018-05-01T08:07:39.769Z,16.70
2018-05-01T08:10:07.040Z,16.80
2018-05-01T08:12:34.181Z,16.70
2018-05-01T08:15:02.867Z,16.80
2018-05-01T08:17:30.011Z,16.80
2018-05-01T08:19:57.212Z,16.90
2018-05-01T08:22:24.363Z,17.00
2018-05-01T08:24:51.500Z,17.10
2018-05-01T08:27:18.720Z,17.10
2018-05-01T08:29:45.973Z,17.20
2018-05-01T08:32:13.298Z,17.20
2018-05-01T08:34:40.568Z,17.30
2018-05-01T08:37:08.185Z,17.30
2018-05-01T08:39:35.380Z,17.30
2018-05-01T08:42:02.647Z,17.30
2018-05-01T08:44:29.899Z,17.40
2018-05-01T08:46:57.231Z,17.50
2018-05-01T08:49:24.391Z,17.60
2018-05-01T08:51:51.625Z,17.60
2018-05-01T08:54:18.751Z,17.70
2018-05-01T08:56:45.966Z,17.60
2018-05-01T08:59:13.286Z,17.50
2018-05-01T09:01:40.641Z,17.60
2018-05-01T09:04:07.825Z,17.50
2018-05-01T09:06:35.724Z,17.30
2018-05-01T09:09:03.011Z,17.30
2018-05-01T09:11:30.300Z,17.50
2018-05-01T09:13:58.132Z,17.60
2018-05-01T09:16:25.493Z,17.70
2018-05-01T09:18:52.664Z,17.80
2018-05-01T09:21:19.990Z,17.90
2018-05-01T09:23:47.123Z,17.90
2018-05-01T09:26:14.910Z,17.80
2018-05-01T09:28:42.670Z,17.80
2018-05-01T09:31:09.869Z,17.90
2018-05-01T09:33:37.845Z,18.00
2018-05-01T09:36:05.804Z,18.10
2018-05-01T09:38:33.033Z,18.10
2018-05-01T09:41:00.975Z,18.20
2018-05-01T09:43:28.136Z,18.20
2018-05-01T09:45:55.316Z,18.30
2018-05-01T09:48:22.471Z,18.30
2018-05-01T09:50:50.430Z,18.50
2018-05-01T09:53:18.080Z,18.50
2018-05-01T09:55:45.840Z,18.60
2018-05-01T09:58:13.700Z,18.60
2018-05-01T10:00:41.394Z,18.70
2018-05-01T10:03:09.792Z,18.70
2018-05-01T10:05:38.421Z,18.70
2018-05-01T10:08:07.732Z,18.80
2018-05-01T10:10:35.424Z,18.80
2018-05-01T10:13:03.839Z,18.90
2018-05-01T10:15:32.340Z,18.90
2018-05-01T10:18:00.229Z,18.80
2018-05-01T10:20:27.887Z,18.90
2018-05-01T10:22:55.554Z,18.80
2018-05-01T10:25:23.305Z,18.80
2018-05-01T10:27:51.073Z,18.70
2018-05-01T10:30:18.939Z,18.80
2018-05-01T10:32:46.636Z,18.90
2018-05-01T10:35:14.375Z,18.80
2018-05-01T10:37:42.165Z,18.90
2018-05-01T10:40:10.724Z,18.90
2018-05-01T10:42:38.389Z,18.90
2018-05-01T10:45:06.091Z,18.90
2018-05-01T10:47:34.531Z,18.90
2018-05-01T10:50:02.295Z,18.90
2018-05-01T10:52:30.114Z,18.90
2018-05-01T10:54:59.431Z,18.90
2018-05-01T10:57:27.051Z,18.90
2018-05-01T10:59:55.802Z,18.90
2018-05-01T11:02:23.463Z,18.90
2018-05-01T11:04:51.143Z,18.70
2018-05-01T11:07:18.822Z,18.70
2018-05-01T11:09:46.555Z,18.60
2018-05-01T11:12:14.164Z,18.50
2018-05-01T11:14:42.698Z,18.30
2018-05-01T11:17:10.500Z,18.30
2018-05-01T11:19:39.062Z,18.20
2018-05-01T11:22:06.812Z,18.10
2018-05-01T11:24:34.628Z,18.20
2018-05-01T11:27:03.176Z,18.10
2018-05-01T11:29:31.231Z,18.00
2018-05-01T11:31:59.034Z,18.00
2018-05-01T11:34:26.651Z,18.00
2018-05-01T11:36:54.420Z,17.90
2018-05-01T11:39:22.123Z,17.90
2018-05-01T11:41:49.891Z,18.00
2018-05-01T11:44:18.363Z,18.00
2018-05-01T11:46:46.103Z,18.00
2018-05-01T11:49:13.790Z,18.00
2018-05-01T11:51:41.451Z,18.00
2018-05-01T11:54:09.116Z,18.00
2018-05-01T11:56:36.748Z,18.10
2018-05-01T11:59:04.406Z,18.10
2018-05-01T12:01:32.069Z,18.10
2018-05-01T12:03:59.852Z,18.10
2018-05-01T12:06:27.705Z,18.10
2018-05-01T12:08:55.399Z,18.00
2018-05-01T12:11:23.809Z,17.90
2018-05-01T12:13:51.464Z,17.90
2018-05-01T12:16:19.896Z,17.90
2018-05-01T12:18:47.587Z,17.90
2018-05-01T12:21:15.220Z,17.90
2018-05-01T12:23:42.948Z,17.90
2018-05-01T12:26:11.320Z,18.00
2018-05-01T12:28:39.230Z,18.00
2018-05-01T12:31:06.957Z,17.90
2018-05-01T12:33:34.656Z,17.90
2018-05-01T12:36:02.343Z,17.90
2018-05-01T12:38:30.001Z,17.90
2018-05-01T12:40:57.669Z,18.00
2018-05-01T12:43:25.402Z,18.00
2018-05-01T12:45:54.430Z,18.00
2018-05-01T12:48:23.967Z,18.10
2018-05-01T12:50:51.603Z,18.10
2018-05-01T12:53:19.431Z,17.90
2018-05-01T12:55:47.090Z,18.00
2018-05-01T12:58:14.858Z,18.10
2018-05-01T13:00:42.655Z,18.10
2018-05-01T13:03:10.499Z,18.00
2018-05-01T13:05:38.192Z,18.00
2018-05-01T13:08:06.639Z,18.10
2018-05-01T13:10:34.264Z,18.10
2018-05-01T13:13:01.888Z,18.10
2018-05-01T13:15:29.552Z,18.00
2018-05-01T13:17:57.171Z,18.10
2018-05-01T13:20:24.881Z,18.10
2018-05-01T13:22:52.537Z,18.10
2018-05-01T13:25:20.207Z,18.20
2018-05-01T13:27:49.473Z,18.30
2018-05-01T13:30:19.596Z,18.50
2018-05-01T13:32:47.357Z,18.50
2018-05-01T13:35:15.426Z,18.50
2018-05-01T13:37:43.045Z,18.50
2018-05-01T13:40:11.416Z,18.40
2018-05-01T13:42:39.874Z,18.40
2018-05-01T13:45:07.815Z,18.40
2018-05-01T13:47:35.431Z,18.40
2018-05-01T13:50:03.959Z,18.50
2018-05-01T13:52:31.660Z,18.50
2018-05-01T13:54:59.318Z,18.50
2018-05-01T13:57:27.094Z,18.40
2018-05-01T13:59:54.811Z,18.40
2018-05-01T14:02:22.583Z,18.40
2018-05-01T14:04:50.343Z,18.40
2018-05-01T14:07:17.973Z,18.40
2018-05-01T14:09:46.569Z,18.40
2018-05-01T14:12:15.003Z,18.40
2018-05-01T14:14:43.902Z,18.40
2018-05-01T14:17:11.829Z,18.40
2018-05-01T14:19:39.593Z,18.40
2018-05-01T14:22:07.372Z,18.40
2018-05-01T14:24:35.008Z,18.40
2018-05-01T14:27:02.660Z,18.50
2018-05-01T14:29:30.325Z,18.50
2018-05-01T14:31:58.315Z,18.40
2018-05-01T14:34:26.082Z,18.50
2018-05-01T14:36:53.948Z,18.40
2018-05-01T14:39:21.631Z,18.40
2018-05-01T14:41:49.478Z,18.40
2018-05-01T14:44:17.162Z,18.30
2018-05-01T14:46:44.942Z,18.40
2018-05-01T14:49:13.364Z,18.30
2018-05-01T14:51:41.060Z,18.30
2018-05-01T14:54:08.732Z,18.40
2018-05-01T14:56:36.349Z,18.40
2018-05-01T14:59:03.983Z,18.30
2018-05-01T15:01:32.428Z,18.40
2018-05-01T15:04:00.064Z,18.40
2018-05-01T15:06:27.696Z,18.40
2018-05-01T15:08:55.379Z,18.40
2018-05-01T15:11:23.103Z,18.30
2018-05-01T15:13:51.481Z,18.30
2018-05-01T15:16:19.228Z,18.30
2018-05-01T15:18:46.872Z,18.40
2018-05-01T15:21:14.671Z,18.30
2018-05-01T15:23:42.357Z,18.30
2018-05-01T15:26:10.063Z,18.30
2018-05-01T15:28:37.676Z,18.30
2018-05-01T15:31:06.208Z,18.30
2018-05-01T15:33:33.901Z,18.30
2018-05-01T15:36:01.570Z,18.30
2018-05-01T15:38:29.224Z,18.30
2018-05-01T15:40:56.959Z,18.30
2018-05-01T15:43:24.828Z,18.30
2018-05-01T15:45:52.435Z,18.20
2018-05-01T15:48:20.969Z,18.10
2018-05-01T15:50:48.836Z,18.10
2018-05-01T15:53:16.469Z,18.10
2018-05-01T15:55:44.129Z,18.20
2018-05-01T15:58:11.853Z,18.20
2018-05-01T16:00:39.702Z,18.20
2018-05-01T16:03:07.455Z,18.10
2018-05-01T16:05:35.142Z,18.10
2018-05-01T16:08:02.820Z,18.20
2018-05-01T16:10:30.493Z,18.20
2018-05-01T16:12:59.333Z,18.00
2018-05-01T16:15:27.202Z,18.10
2018-05-01T16:17:55.008Z,18.10
2018-05-01T16:20:23.394Z,18.00
2018-05-01T16:22:51.929Z,18.00
2018-05-01T16:25:19.694Z,18.00
2018-05-01T16:27:47.376Z,18.00
2018-05-01T16:30:15.121Z,18.00
2018-05-01T16:32:42.744Z,18.00
2018-05-01T16:35:10.491Z,17.90
2018-05-01T16:37:39.792Z,17.90
2018-05-01T16:40:07.511Z,17.90
2018-05-01T16:42:35.291Z,17.80
2018-05-01T16:45:02.982Z,17.90
2018-05-01T16:47:31.413Z,17.80
2018-05-01T16:49:59.103Z,17.80
2018-05-01T16:52:26.949Z,17.80
2018-05-01T16:54:54.630Z,17.90
2018-05-01T16:57:22.376Z,17.80
2018-05-01T16:59:50.032Z,17.80
2018-05-01T17:02:17.700Z,17.70
2018-05-01T17:04:45.790Z,17.70
2018-05-01T17:07:13.537Z,17.70
2018-05-01T17:09:41.302Z,17.70
2018-05-01T17:12:08.964Z,17.70
2018-05-01T17:14:36.627Z,17.60
2018-05-01T17:17:04.391Z,17.60
2018-05-01T17:19:32.258Z,17.60
2018-05-01T17:21:59.916Z,17.60
2018-05-01T17:24:27.687Z,17.60
2018-05-01T17:26:55.451Z,17.50
2018-05-01T17:29:23.058Z,17.60
2018-05-01T17:31:51.438Z,17.60
2018-05-01T17:34:19.906Z,17.60
2018-05-01T17:36:47.561Z,17.50
2018-05-01T17:39:15.218Z,17.50
2018-05-01T17:41:42.962Z,17.40
2018-05-01T17:44:10.828Z,17.40
2018-05-01T17:46:38.442Z,17.40
2018-05-01T17:49:06.903Z,17.30
2018-05-01T17:51:34.676Z,17.30
2018-05-01T17:54:03.132Z,17.30
2018-05-01T17:56:30.792Z,17.30
2018-05-01T17:58:58.450Z,17.30
2018-05-01T18:01:28.060Z,17.20
2018-05-01T18:03:55.673Z,17.20
2018-05-01T18:06:23.463Z,17.20
2018-05-01T18:08:51.651Z,17.10
2018-05-01T18:11:19.414Z,17.10
2018-05-01T18:13:47.113Z,17.10
2018-05-01T18:16:16.227Z,17.00
2018-05-01T18:18:44.143Z,17.10
2018-05-01T18:21:11.908Z,17.00
2018-05-01T18:23:39.671Z,17.10
2018-05-01T18:26:07.646Z,17.00
2018-05-01T18:28:35.407Z,17.00
2018-05-01T18:31:03.068Z,16.90
2018-05-01T18:33:30.831Z,16.90
2018-05-01T18:35:58.451Z,16.90
2018-05-01T18:38:26.863Z,16.80
2018-05-01T18:40:55.432Z,16.80
2018-05-01T18:43:23.195Z,16.70
2018-05-01T18:45:50.867Z,16.70
2018-05-01T18:48:18.687Z,16.70
2018-05-01T18:50:46.441Z,16.60
2018-05-01T18:53:14.312Z,16.70
2018-05-01T18:55:42.152Z,16.60
2018-05-01T18:58:09.950Z,16.90
2018-05-01T19:00:38.429Z,17.20
2018-05-01T19:03:06.405Z,17.20
2018-05-01T19:05:34.162Z,17.20
2018-05-01T19:08:01.892Z,17.30
2018-05-01T19:10:29.603Z,17.30
2018-05-01T19:12:57.446Z,17.30
2018-05-01T19:15:26.063Z,17.30
2018-05-01T19:17:54.503Z,17.30
2018-05-01T19:20:22.150Z,17.30
2018-05-01T19:22:49.794Z,17.30
2018-05-01T19:25:17.476Z,17.30
2018-05-01T19:27:45.099Z,17.30
2018-05-01T19:30:12.905Z,17.30
2018-05-01T19:32:40.529Z,17.30
2018-05-01T19:35:08.970Z,17.20
2018-05-01T19:37:36.628Z,17.20
2018-05-01T19:40:04.378Z,17.10
2018-05-01T19:42:32.241Z,17.10
2018-05-01T19:45:00.012Z,17.10
2018-05-01T19:47:27.951Z,17.10
2018-05-01T19:49:55.683Z,17.10
2018-05-01T19:52:24.413Z,17.10
2018-05-01T19:54:52.150Z,17.10
2018-05-01T19:57:20.059Z,17.10
2018-05-01T19:59:47.679Z,17.00
2018-05-01T20:02:16.108Z,17.00
2018-05-01T20:04:43.770Z,17.00
2018-05-01T20:07:11.630Z,17.00
2018-05-01T20:09:39.433Z,16.90
2018-05-01T20:12:07.992Z,16.90
2018-05-01T20:14:35.673Z,16.80
2018-05-01T20:17:03.862Z,16.80
2018-05-01T20:19:32.366Z,16.80
2018-05-01T20:22:00.748Z,16.70
2018-05-01T20:24:28.482Z,16.70
2018-05-01T20:26:57.237Z,16.70
2018-05-01T20:29:25.096Z,16.70
2018-05-01T20:31:52.740Z,16.70
2018-05-01T20:34:21.351Z,16.60
2018-05-01T20:36:49.114Z,16.60
2018-05-01T20:39:16.736Z,16.50
2018-05-01T20:41:44.887Z,16.50
2018-05-01T20:44:13.276Z,16.50
2018-05-01T20:46:41.702Z,16.40
2018-05-01T20:49:09.467Z,16.40
2018-05-01T20:51:37.239Z,16.40
2018-05-01T20:54:05.099Z,16.40
2018-05-01T20:56:32.865Z,16.40
2018-05-01T20:59:00.581Z,16.40
2018-05-01T21:01:28.347Z,16.30
2018-05-01T21:03:56.074Z,16.20
2018-05-01T21:06:23.721Z,16.20
2018-05-01T21:08:51.367Z,16.20
2018-05-01T21:11:19.090Z,16.10
2018-05-01T21:13:48.449Z,16.20
2018-05-01T21:16:16.253Z,16.10
2018-05-01T21:18:44.733Z,16.10
2018-05-01T21:21:13.160Z,16.10
2018-05-01T21:23:40.976Z,16.10
2018-05-01T21:26:08.640Z,16.00
2018-05-01T21:28:36.240Z,16.00
2018-05-01T21:31:03.910Z,16.00
2018-05-01T21:33:31.535Z,16.00
2018-05-01T21:35:59.912Z,15.90
2018-05-01T21:38:29.280Z,15.90
2018-05-01T21:40:56.933Z,15.90
2018-05-01T21:43:24.805Z,15.90
2018-05-01T21:45:52.664Z,15.90
2018-05-01T21:48:20.271Z,15.80
2018-05-01T21:50:48.655Z,15.60
2018-05-01T21:53:17.070Z,15.60
2018-05-01T21:55:44.808Z,15.60
2018-05-01T21:58:12.429Z,15.60
2018-05-01T22:00:40.109Z,15.60
2018-05-01T22:03:08.665Z,15.60
2018-05-01T22:05:36.316Z,15.50
2018-05-01T22:08:03.985Z,15.50
2018-05-01T22:10:31.853Z,15.50
2018-05-01T22:12:59.617Z,15.60
2018-05-01T22:15:27.223Z,15.60
2018-05-01T22:17:55.664Z,15.50
2018-05-01T22:20:23.319Z,15.50
2018-05-01T22:22:51.395Z,15.40
2018-05-01T22:25:19.394Z,15.30
2018-05-01T22:27:47.823Z,15.20
2018-05-01T22:30:15.611Z,15.10
2018-05-01T22:32:43.284Z,15.30
2018-05-01T22:35:10.902Z,15.20
2018-05-01T22:37:38.696Z,15.20
2018-05-01T22:40:06.492Z,15.20
2018-05-01T22:42:34.102Z,15.20
2018-05-01T22:45:01.890Z,15.20
2018-05-01T22:47:29.564Z,15.10
2018-05-01T22:49:57.315Z,15.10
2018-05-01T22:52:25.126Z,15.10
2018-05-01T22:54:53.593Z,15.00
2018-05-01T22:57:21.326Z,15.00
2018-05-01T22:59:49.017Z,15.00
2018-05-01T23:02:16.859Z,14.90
2018-05-01T23:04:44.511Z,14.90
2018-05-01T23:07:12.385Z,14.80
2018-05-01T23:09:40.059Z,14.80
2018-05-01T23:12:07.811Z,14.60
2018-05-01T23:14:35.690Z,14.60
2018-05-01T23:17:03.316Z,14.60
2018-05-01T23:19:30.960Z,14.70
2018-05-01T23:21:59.487Z,14.60
2018-05-01T23:24:27.351Z,14.60
2018-05-01T23:26:54.981Z,14.60
2018-05-01T23:29:22.778Z,14.60
2018-05-01T23:31:50.581Z,14.60
2018-05-01T23:34:19.132Z,14.60
2018-05-01T23:36:46.928Z,14.60
2018-05-01T23:39:15.318Z,14.50
2018-05-01T23:41:42.963Z,14.50
2018-05-01T23:44:10.629Z,14.50
2018-05-01T23:46:39.795Z,14.30
2018-05-01T23:49:07.563Z,14.30
2018-05-01T23:51:35.352Z,14.30
2018-05-01T23:54:02.989Z,14.30
2018-05-01T23:56:30.637Z,14.40
2018-05-01T23:58:58.319Z,14.30
